Time;durP1;ratioP1;P1;durP2;ratioP2;P2;SDS_P1;SDS_P2;PMS_P1;PMS_P2;Temp;Humidity;BMP_temperature;BMP_pressure;BME280_temperature;BME280_humidity;BME280_pressure;Samples;Min_cycle;Max_cycle;Signal;HPM_P1;HPM_P2
2021/01/22 05:51:44;;;;;;;45.50;27.63;;;;;;;0.62;91.02;98072.47;1697785;79;21604;-60
2021/01/22 05:54:35;;;;;;;46.37;28.33;;;;;;;0.64;90.70;98077.52;1679773;84;21178;-59
2021/01/22 05:57:05;;;;;;;46.47;29.10;;;;;;;0.61;90.62;98072.15;1684069;84;21163;-59
2021/01/22 05:59:37;;;;;;;45.00;27.10;;;;;;;0.54;90.52;98066.00;1689034;84;21139;-59
2021/01/22 06:02:28;;;;;;;43.90;28.23;;;;;;;0.51;90.58;98068.41;1688603;84;21526;-59
2021/01/22 06:05:16;;;;;;;43.87;26.93;;;;;;;0.50;90.82;98073.28;1687151;85;21147;-61
2021/01/22 06:07:47;;;;;;;41.83;25.23;;;;;;;0.54;90.99;98077.67;1687186;85;21586;-60
2021/01/22 06:13:00;;;;;;;45.27;26.47;;;;;;;0.69;90.56;98068.73;1805491;79;23065;-60
2021/01/22 06:15:29;;;;;;;47.57;29.20;;;;;;;0.70;90.29;98075.06;1685442;83;21791;-53
2021/01/22 06:17:59;;;;;;;47.37;30.20;;;;;;;0.72;90.22;98076.19;1723815;82;21186;-59
2021/01/22 06:20:29;;;;;;;48.28;32.15;;;;;;;0.77;90.00;98075.22;1729279;81;21165;-58
2021/01/22 06:23:14;;;;;;;53.20;34.50;;;;;;;0.79;89.68;98079.25;1732946;81;21150;-54
2021/01/22 06:25:46;;;;;;;48.30;29.83;;;;;;;0.85;89.48;98070.00;1696632;81;21171;-58
2021/01/22 06:28:15;;;;;;;47.53;27.93;;;;;;;0.93;89.29;98085.58;1723289;81;21197;-57
2021/01/22 06:30:45;;;;;;;46.07;29.47;;;;;;;1.03;89.23;98077.12;1704441;82;21205;-54
2021/01/22 06:33:17;;;;;;;47.33;29.00;;;;;;;1.12;89.01;98078.39;1707376;82;21748;-57
2021/01/22 06:35:59;;;;;;;46.40;28.57;;;;;;;1.18;88.72;98079.83;1676672;83;21646;-63
2021/01/22 06:38:29;;;;;;;43.47;27.40;;;;;;;1.26;88.26;98073.79;1706263;83;21578;-61
2021/01/22 06:40:59;;;;;;;43.90;26.53;;;;;;;1.31;87.81;98068.91;1721168;82;21214;-59
2021/01/22 06:43:28;;;;;;;45.27;27.93;;;;;;;1.37;87.34;98076.52;1698662;84;21707;-54
2021/01/22 06:46:04;;;;;;;45.00;28.87;;;;;;;1.41;87.42;98063.52;1740066;81;21597;-49
2021/01/22 06:48:57;;;;;;;43.03;27.00;;;;;;;1.45;87.38;98074.71;1745277;82;22177;-53
2021/01/22 06:51:33;;;;;;;45.40;27.17;;;;;;;1.54;86.75;98063.29;1762742;80;21229;-50
2021/01/22 06:54:15;;;;;;;46.67;31.83;;;;;;;1.62;86.23;98061.16;1772868;80;21154;-54
2021/01/22 06:56:53;;;;;;;48.73;30.70;;;;;;;1.71;85.66;98062.72;1783699;79;21327;-54
2021/01/22 06:59:37;;;;;;;52.23;30.53;;;;;;;1.78;85.32;98061.08;1788947;79;21628;-55
2021/01/22 07:02:37;;;;;;;53.63;30.27;;;;;;;1.85;85.12;98065.91;1758808;81;21302;-61
2021/01/22 07:05:40;;;;;;;40.67;24.47;;;;;;;1.96;84.60;98058.70;1730970;81;21200;-56
2021/01/22 07:08:08;;;;;;;39.63;23.80;;;;;;;2.08;83.93;98065.92;1764650;80;21280;-54
2021/01/22 07:10:57;;;;;;;36.70;22.37;;;;;;;2.19;83.49;98063.42;1771752;80;21650;-55
2021/01/22 07:13:37;;;;;;;37.42;23.00;;;;;;;2.29;83.17;98060.07;1769414;80;21115;-57
2021/01/22 07:16:19;;;;;;;38.63;23.83;;;;;;;2.42;83.00;98057.41;1762316;79;21189;-56
2021/01/22 07:18:56;;;;;;;40.57;25.67;;;;;;;2.56;82.81;98052.22;1754150;81;21163;-56
2021/01/22 07:21:37;;;;;;;37.73;22.97;;;;;;;2.72;82.30;98054.37;1757496;81;21180;-52
2021/01/22 07:24:12;;;;;;;37.15;24.07;;;;;;;2.86;81.60;98050.96;1768803;79;21310;-56
2021/01/22 07:26:50;;;;;;;38.13;23.90;;;;;;;2.98;80.77;98048.23;1756774;81;21192;-54
2021/01/22 07:29:27;;;;;;;39.67;24.23;;;;;;;3.08;80.25;98055.78;1732658;81;21126;-57
2021/01/22 07:32:03;;;;;;;36.63;24.37;;;;;;;3.18;79.56;98046.72;1733816;83;21178;-58
2021/01/22 07:34:52;;;;;;;38.40;24.47;;;;;;;3.31;79.24;98047.88;1727934;81;21162;-52
2021/01/22 07:37:23;;;;;;;40.17;25.68;;;;;;;3.45;78.56;98049.67;1731719;83;22231;-56
2021/01/22 07:39:55;;;;;;;37.95;22.75;;;;;;;3.57;78.23;98052.13;1727649;83;21357;-48
2021/01/22 07:42:27;;;;;;;36.83;23.60;;;;;;;3.68;77.52;98042.53;1668379;83;21259;-52
2021/01/22 07:45:17;;;;;;;38.10;22.58;;;;;;;3.82;76.90;98051.80;1734296;83;21755;-55
2021/01/22 07:47:48;;;;;;;39.05;24.12;;;;;;;3.92;76.17;98044.48;1733915;83;21196;-54
2021/01/22 07:50:19;;;;;;;39.78;24.60;;;;;;;3.97;75.73;98046.86;1735057;83;21193;-52
2021/01/22 07:52:49;;;;;;;39.00;24.25;;;;;;;4.02;75.34;98047.61;1722835;83;21280;-52
2021/01/22 07:55:22;;;;;;;40.58;23.67;;;;;;;4.07;75.18;98050.94;1732118;81;21114;-56
2021/01/22 07:58:05;;;;;;;42.45;27.75;;;;;;;4.09;74.97;98041.95;1733719;83;22229;-51
2021/01/22 08:00:41;;;;;;;40.95;25.32;;;;;;;4.18;74.82;98051.75;1735130;83;21645;-51
2021/01/22 08:03:13;;;;;;;38.83;24.52;;;;;;;4.26;74.50;98047.23;1734915;83;21668;-56
2021/01/22 08:05:45;;;;;;;38.33;25.85;;;;;;;4.34;74.43;98042.87;1714446;83;21179;-55
2021/01/22 08:08:19;;;;;;;44.30;31.85;;;;;;;4.35;74.26;98041.87;1706147;84;21330;-54
2021/01/22 08:10:49;;;;;;;41.02;30.77;;;;;;;4.38;74.22;98041.52;1705654;83;21354;-52
2021/01/22 08:13:19;;;;;;;36.98;24.87;;;;;;;4.42;73.95;98041.45;1696843;84;21552;-53
2021/01/22 08:16:06;;;;;;;33.20;20.68;;;;;;;4.45;75.21;98033.23;1745916;82;21224;-55
2021/01/22 08:18:38;;;;;;;34.23;22.50;;;;;;;4.48;77.81;98035.48;1756681;81;21351;-58
2021/01/22 08:37:10;;;;;;;42.40;27.13;;;;;;;4.53;73.65;98037.03;1704868;79;21262;-54
2021/01/22 08:39:49;;;;;;;38.90;24.95;;;;;;;4.47;73.66;98037.75;1683580;83;21214;-52
2021/01/22 08:42:18;;;;;;;32.05;19.35;;;;;;;4.46;73.82;98042.67;1687773;84;21174;-52
2021/01/22 08:44:55;;;;;;;33.42;20.32;;;;;;;4.42;73.74;98045.38;1687127;85;21234;-58
2021/01/22 08:47:25;;;;;;;32.45;19.87;;;;;;;4.37;73.78;98037.30;1694348;85;21162;-52
2021/01/22 08:50:00;;;;;;;36.30;23.12;;;;;;;4.30;73.74;98034.63;1676454;83;21198;-57
2021/01/22 08:52:29;;;;;;;33.88;20.82;;;;;;;4.27;73.87;98037.60;1673880;85;21234;-57
2021/01/22 08:54:59;;;;;;;31.75;19.10;;;;;;;4.28;74.02;98037.91;1673963;84;21143;-54
2021/01/22 08:57:30;;;;;;;31.95;19.32;;;;;;;4.33;74.02;98032.13;1681079;84;21183;-55
2021/01/22 09:00:00;;;;;;;29.48;18.25;;;;;;;4.35;73.84;98030.12;1666772;84;21162;-55
2021/01/22 09:02:39;;;;;;;31.10;18.87;;;;;;;4.35;73.96;98027.02;1662317;85;21239;-52
2021/01/22 09:05:16;;;;;;;30.00;17.98;;;;;;;4.41;73.87;98022.86;1694794;84;21704;-55
2021/01/22 09:07:47;;;;;;;28.95;17.60;;;;;;;4.48;73.77;98020.63;1676627;85;21190;-54
2021/01/22 09:10:27;;;;;;;32.98;18.60;;;;;;;4.63;73.67;98021.02;1660826;86;21209;-52
2021/01/22 09:13:13;;;;;;;35.80;20.05;;;;;;;4.83;73.52;98018.56;1681480;84;21605;-54
2021/01/22 09:15:43;;;;;;;33.30;22.80;;;;;;;5.06;72.67;98009.95;1662624;84;21207;-51
2021/01/22 09:18:20;;;;;;;32.05;19.30;;;;;;;5.29;71.97;98001.33;1673670;85;21195;-52
2021/01/22 09:21:00;;;;;;;29.02;18.85;;;;;;;5.49;71.42;97993.55;1627827;87;21677;-51
2021/01/22 09:23:32;;;;;;;30.48;18.02;;;;;;;5.64;70.82;97986.88;1675465;84;21747;-59
2021/01/22 09:26:03;;;;;;;29.05;18.07;;;;;;;5.75;70.46;97983.68;1673296;85;21219;-56
2021/01/22 09:28:33;;;;;;;29.20;18.02;;;;;;;5.83;69.91;97978.25;1681654;84;21130;-56
2021/01/22 09:31:03;;;;;;;30.82;18.95;;;;;;;5.89;69.58;97977.16;1685858;85;23639;-51
2021/01/22 09:33:34;;;;;;;26.77;15.95;;;;;;;5.95;69.39;97973.27;1671518;85;21332;-52
2021/01/22 09:36:05;;;;;;;27.62;16.30;;;;;;;6.02;69.06;97978.03;1650381;84;21648;-56
2021/01/22 09:38:35;;;;;;;30.57;19.90;;;;;;;6.12;68.59;97977.61;1696280;84;21207;-50
2021/01/22 09:41:04;;;;;;;31.68;19.25;;;;;;;6.19;68.22;97986.77;1691606;84;21232;-52
2021/01/22 09:43:38;;;;;;;27.85;16.90;;;;;;;6.16;67.93;97985.88;1686399;85;21176;-56
2021/01/22 09:46:11;;;;;;;25.70;16.42;;;;;;;6.11;67.68;97985.17;1685609;85;21181;-53
2021/01/22 09:48:41;;;;;;;27.67;17.15;;;;;;;6.06;67.68;97989.69;1679441;84;21227;-50
2021/01/22 09:51:10;;;;;;;29.23;16.55;;;;;;;6.03;68.05;97988.80;1671964;85;21222;-49
2021/01/22 09:53:40;;;;;;;28.42;15.78;;;;;;;6.04;68.01;97987.78;1633621;87;21180;-59
2021/01/22 09:56:10;;;;;;;40.52;23.92;;;;;;;6.08;67.93;97973.30;1648510;87;21652;-52
2021/01/22 09:58:40;;;;;;;39.92;23.75;;;;;;;6.11;67.90;97975.51;1632029;87;21364;-58
2021/01/22 10:01:10;;;;;;;46.70;29.00;;;;;;;6.15;67.64;97985.08;1631620;88;21741;-54
2021/01/22 10:03:40;;;;;;;54.27;35.35;;;;;;;6.13;67.64;97980.03;1630755;88;21270;-51
2021/01/22 10:06:12;;;;;;;46.00;28.02;;;;;;;6.14;67.84;97978.23;1630955;87;21737;-51
2021/01/22 10:08:41;;;;;;;32.25;20.50;;;;;;;6.10;67.77;97968.66;1631111;87;21260;-52
2021/01/22 10:11:10;;;;;;;28.38;17.62;;;;;;;6.06;67.91;97975.80;1644723;87;21645;-53
2021/01/22 10:13:40;;;;;;;26.87;14.90;;;;;;;5.98;68.11;97968.97;1655232;87;21175;-50
2021/01/22 10:16:28;;;;;;;27.22;16.07;;;;;;;5.95;68.00;97967.23;1642740;87;21231;-54
2021/01/22 10:18:58;;;;;;;26.25;14.95;;;;;;;5.98;68.12;97966.34;1641466;87;21632;-52
2021/01/22 10:21:28;;;;;;;33.88;18.27;;;;;;;6.05;68.20;97965.04;1655388;87;21195;-57
2021/01/22 10:23:57;;;;;;;50.73;28.87;;;;;;;6.11;68.18;97953.27;1679059;85;21344;-57
2021/01/22 10:26:30;;;;;;;40.03;22.07;;;;;;;6.22;68.14;97948.44;1669701;85;22249;-51
2021/01/22 10:29:00;;;;;;;47.65;25.00;;;;;;;6.36;67.84;97943.48;1691513;85;21661;-54
2021/01/22 10:31:29;;;;;;;51.45;25.23;;;;;;;6.57;67.31;97942.47;1690350;85;21129;-56
2021/01/22 10:33:59;;;;;;;54.35;29.63;;;;;;;6.78;66.80;97947.97;1690091;83;21810;-53
2021/01/22 10:36:31;;;;;;;47.08;27.00;;;;;;;6.98;66.20;97947.40;1689890;84;21226;-55
2021/01/22 10:39:01;;;;;;;40.65;25.35;;;;;;;7.13;65.50;97940.61;1659373;85;21322;-56
2021/01/22 10:41:30;;;;;;;35.88;20.12;;;;;;;7.21;64.95;97938.25;1678439;84;21183;-49
2021/01/22 10:44:00;;;;;;;28.00;16.95;;;;;;;7.20;64.21;97932.20;1678282;85;21325;-57
2021/01/22 10:46:32;;;;;;;28.35;14.83;;;;;;;7.19;64.14;97930.09;1678332;85;21175;-48
2021/01/22 10:49:02;;;;;;;24.90;14.53;;;;;;;7.17;64.04;97926.89;1678192;85;21183;-54
2021/01/22 10:51:33;;;;;;;24.05;13.58;;;;;;;7.13;63.72;97920.95;1678751;85;21626;-54
2021/01/22 10:54:02;;;;;;;23.15;13.20;;;;;;;7.10;63.80;97931.83;1678937;85;21171;-56
2021/01/22 10:56:32;;;;;;;23.27;13.68;;;;;;;7.08;63.70;97936.48;1678256;85;21267;-60
2021/01/22 10:59:02;;;;;;;24.45;14.68;;;;;;;7.01;63.61;97931.78;1678576;84;21203;-62
2021/01/22 11:01:31;;;;;;;22.50;13.25;;;;;;;6.97;63.77;97928.77;1678553;85;21333;-52
2021/01/22 11:04:01;;;;;;;21.77;11.40;;;;;;;6.92;63.96;97925.95;1676641;85;21666;-56
2021/01/22 11:06:31;;;;;;;20.72;11.63;;;;;;;6.90;64.00;97917.51;1676891;85;21219;-51
2021/01/22 11:09:01;;;;;;;27.37;15.00;;;;;;;6.82;64.18;97921.14;1677692;84;21187;-54
2021/01/22 11:11:30;;;;;;;25.50;14.28;;;;;;;6.72;64.38;97912.93;1667986;86;21225;-55
2021/01/22 11:13:59;;;;;;;27.40;15.65;;;;;;;6.63;64.61;97918.88;1662173;85;21338;-53
2021/01/22 11:16:30;;;;;;;32.00;17.25;;;;;;;6.59;64.80;97913.74;1661671;85;21148;-55
2021/01/22 11:18:59;;;;;;;30.45;18.15;;;;;;;6.61;65.04;97913.05;1673214;85;21267;-49
2021/01/22 11:21:30;;;;;;;34.48;20.70;;;;;;;6.64;65.02;97899.53;1667696;84;21365;-55
2021/01/22 11:24:00;;;;;;;35.78;18.20;;;;;;;6.64;65.08;97900.84;1662065;85;21183;-51
2021/01/22 11:26:30;;;;;;;27.77;16.60;;;;;;;6.64;65.13;97892.19;1661382;86;21247;-53
2021/01/22 11:28:59;;;;;;;27.60;16.65;;;;;;;6.65;65.14;97893.31;1660438;85;21214;-55
2021/01/22 11:31:29;;;;;;;28.65;16.10;;;;;;;6.69;65.06;97889.75;1667422;85;21178;-53
2021/01/22 11:33:59;;;;;;;22.05;13.53;;;;;;;6.76;65.22;97878.75;1679587;83;21172;-53
2021/01/22 11:36:29;;;;;;;22.20;12.45;;;;;;;6.85;64.97;97880.13;1680380;85;21183;-51
2021/01/22 11:38:59;;;;;;;24.07;14.03;;;;;;;6.93;64.81;97873.84;1679168;85;21372;-53
2021/01/22 11:41:29;;;;;;;22.75;14.45;;;;;;;6.97;64.48;97875.56;1680345;85;21206;-50
2021/01/22 11:44:00;;;;;;;22.13;11.65;;;;;;;7.00;64.62;97872.03;1680152;85;21196;-54
2021/01/22 11:46:32;;;;;;;20.43;11.88;;;;;;;7.05;64.25;97870.06;1660440;85;22395;-51
2021/01/22 11:49:03;;;;;;;23.12;13.10;;;;;;;7.05;64.20;97863.52;1683336;85;22344;-57
2021/01/22 11:51:33;;;;;;;22.60;13.40;;;;;;;7.08;64.11;97876.22;1683525;85;21219;-57
2021/01/22 11:54:04;;;;;;;26.95;15.88;;;;;;;7.07;63.95;97867.55;1683432;85;21190;-57
2021/01/22 11:56:34;;;;;;;22.95;14.30;;;;;;;7.09;64.00;97868.64;1681889;85;21253;-58
2021/01/22 11:59:04;;;;;;;21.02;13.58;;;;;;;7.16;63.75;97869.41;1680681;85;21183;-50
2021/01/22 12:01:36;;;;;;;21.65;13.05;;;;;;;7.22;63.67;97867.26;1679553;85;21235;-55
2021/01/22 12:04:07;;;;;;;20.55;11.25;;;;;;;7.29;63.58;97857.56;1679587;85;21223;-54
2021/01/22 12:06:38;;;;;;;21.15;11.12;;;;;;;7.38;63.06;97856.79;1679461;85;21223;-60
2021/01/22 12:09:08;;;;;;;22.75;11.70;;;;;;;7.43;62.82;97856.45;1680224;85;21211;-52
2021/01/22 12:11:37;;;;;;;21.75;12.15;;;;;;;7.51;62.71;97855.38;1680447;85;21223;-57
2021/01/22 12:14:07;;;;;;;22.07;11.85;;;;;;;7.58;62.29;97852.23;1680621;85;21151;-55
2021/01/22 12:16:36;;;;;;;20.88;11.05;;;;;;;7.63;62.16;97849.78;1703832;84;21727;-55
2021/01/22 12:19:05;;;;;;;22.52;12.40;;;;;;;7.71;62.14;97856.57;1711245;83;21299;-60
2021/01/22 12:21:35;;;;;;;22.98;11.95;;;;;;;7.81;61.70;97856.90;1656174;87;21237;-48
2021/01/22 12:24:06;;;;;;;21.75;12.10;;;;;;;7.83;61.41;97850.12;1683025;85;21780;-48
2021/01/22 12:26:35;;;;;;;20.72;11.65;;;;;;;7.85;61.32;97848.88;1683334;85;21947;-57
2021/01/22 12:29:05;;;;;;;21.62;11.73;;;;;;;7.85;61.23;97838.38;1682892;85;21678;-52
2021/01/22 12:31:35;;;;;;;21.55;11.57;;;;;;;7.79;61.31;97839.23;1682762;85;21371;-53
2021/01/22 12:34:06;;;;;;;20.50;11.97;;;;;;;7.72;61.36;97845.85;1681256;84;21676;-57
2021/01/22 12:36:36;;;;;;;21.73;11.57;;;;;;;7.67;61.33;97840.44;1680319;84;21214;-60
2021/01/22 12:39:06;;;;;;;23.80;11.88;;;;;;;7.60;61.63;97838.38;1672002;85;21203;-59
2021/01/22 12:41:36;;;;;;;22.27;11.83;;;;;;;7.53;62.00;97840.77;1671202;84;21212;-54
2021/01/22 12:44:06;;;;;;;23.05;13.03;;;;;;;7.49;62.14;97834.33;1668284;85;21260;-51
2021/01/22 12:46:36;;;;;;;29.48;18.50;;;;;;;7.39;62.33;97844.77;1669327;84;21239;-56
2021/01/22 12:49:06;;;;;;;24.32;14.60;;;;;;;7.34;62.58;97839.38;1662799;85;21754;-55
2021/01/22 12:51:37;;;;;;;23.80;12.70;;;;;;;7.31;62.73;97833.75;1666709;83;21341;-54
2021/01/22 12:54:26;;;;;;;21.15;11.25;;;;;;;7.24;62.82;97825.12;1670625;81;21649;-53
2021/01/22 12:56:59;;;;;;;22.65;12.60;;;;;;;7.15;63.05;97821.94;1644748;85;21183;-56
2021/01/22 12:59:28;;;;;;;19.85;10.20;;;;;;;7.07;63.33;97819.58;1645218;85;21180;-62
2021/01/22 13:01:58;;;;;;;22.20;11.57;;;;;;;7.02;63.54;97818.09;1646798;85;21244;-58
2021/01/22 13:04:27;;;;;;;21.87;11.60;;;;;;;7.02;63.75;97819.41;1675069;84;21317;-63
2021/01/22 13:06:56;;;;;;;26.70;14.03;;;;;;;6.97;63.88;97820.53;1647797;86;21201;-57
2021/01/22 13:09:27;;;;;;;25.82;13.78;;;;;;;6.96;64.10;97821.55;1677597;85;21183;-55
2021/01/22 13:11:56;;;;;;;23.15;13.15;;;;;;;6.93;64.16;97822.25;1677390;85;21183;-62
2021/01/22 13:14:28;;;;;;;21.50;11.03;;;;;;;6.90;64.55;97816.64;1677294;85;21484;-56
2021/01/22 13:16:57;;;;;;;23.10;12.13;;;;;;;6.86;64.59;97814.14;1678676;85;21186;-56
2021/01/22 13:19:26;;;;;;;27.98;16.05;;;;;;;6.81;64.64;97816.06;1679153;84;21210;-61
2021/01/22 13:21:58;;;;;;;30.43;18.00;;;;;;;6.72;64.77;97827.81;1677845;84;21130;-56
2021/01/22 13:24:28;;;;;;;35.92;23.95;;;;;;;6.72;64.77;97827.81;1677669;85;21914;-55
2021/01/22 13:27:00;;;;;;;41.10;30.32;;;;;;;6.67;65.36;97832.06;1646793;85;21648;-59
2021/01/22 13:29:30;;;;;;;33.75;24.02;;;;;;;6.68;65.43;97823.19;1677615;84;21167;-60
2021/01/22 13:32:02;;;;;;;28.87;19.20;;;;;;;6.70;65.63;97835.05;1680459;84;21202;-60
